Time;durP1;ratioP1;P1;durP2;ratioP2;P2;SDS_P1;SDS_P2;PMS_P1;PMS_P2;Temp;Humidity;BMP_temperature;BMP_pressure;BME280_temperature;BME280_humidity;BME280_pressure;Samples;Min_cycle;Max_cycle;Signal;HPM_P1;HPM_P2
2022/09/16 00:02:27;;;;;;;7.88;4.05;;;18.30;99.90;;;;;;4706239;30;20500;-96
2022/09/16 00:04:55;;;;;;;8.27;3.70;;;18.30;99.90;;;;;;4732866;30;20052;-96
2022/09/16 00:07:22;;;;;;;5.53;3.38;;;18.30;99.90;;;;;;4704394;30;20115;-96
2022/09/16 00:09:50;;;;;;;6.35;3.40;;;18.30;99.90;;;;;;4702355;30;20045;-96
2022/09/16 00:12:17;;;;;;;6.68;3.45;;;18.20;99.90;;;;;;4715891;30;20056;-95
2022/09/16 00:14:45;;;;;;;4.50;2.67;;;18.20;99.90;;;;;;4696605;30;20052;-96
2022/09/16 00:17:14;;;;;;;6.40;3.30;;;18.20;99.90;;;;;;4728555;30;20048;-96
2022/09/16 00:19:43;;;;;;;8.35;3.50;;;18.20;99.90;;;;;;4718792;30;20057;-96
2022/09/16 00:22:12;;;;;;;6.10;3.45;;;18.10;99.90;;;;;;4729287;30;20060;-96
2022/09/16 00:24:39;;;;;;;6.15;3.33;;;18.10;99.90;;;;;;4731764;30;20056;-96
2022/09/16 00:27:08;;;;;;;5.15;3.33;;;18.10;99.90;;;;;;4716025;30;20135;-95
2022/09/16 00:29:36;;;;;;;5.57;2.65;;;18.10;99.90;;;;;;4715296;30;20064;-96
2022/09/16 00:32:04;;;;;;;5.97;2.67;;;18.10;99.90;;;;;;4717591;30;20057;-95
2022/09/16 00:34:32;;;;;;;4.03;2.72;;;18.10;99.90;;;;;;4728193;30;20044;-95
2022/09/16 00:37:02;;;;;;;7.88;3.33;;;18.10;99.90;;;;;;4713398;30;20727;-96
2022/09/16 00:39:29;;;;;;;3.88;2.47;;;18.10;99.90;;;;;;4731305;30;20063;-96
2022/09/16 00:41:57;;;;;;;5.30;3.03;;;18.10;99.90;;;;;;4754265;29;20071;-96
2022/09/16 00:47:52;;;;;;;8.90;3.35;;;18.10;99.90;;;;;;4798715;24;20138;-96
2022/09/16 00:53:51;;;;;;;6.22;2.50;;;18.10;99.90;;;;;;4777890;24;20204;-96
2022/09/16 00:56:24;;;;;;;4.70;2.33;;;18.00;99.90;;;;;;4728152;30;20060;-95
2022/09/16 00:59:45;;;;;;;3.28;1.88;;;18.00;99.90;;;;;;4804265;24;20063;-94
2022/09/16 01:02:17;;;;;;;4.18;2.10;;;17.90;99.90;;;;;;4787103;29;20142;-96
2022/09/16 01:04:47;;;;;;;4.05;2.35;;;17.90;99.90;;;;;;4783899;29;20491;-94
2022/09/16 01:07:16;;;;;;;4.22;1.90;;;17.90;99.90;;;;;;4786630;29;20112;-95
2022/09/16 01:09:43;;;;;;;3.00;1.83;;;17.90;99.90;;;;;;4786845;29;20054;-93
2022/09/16 01:12:10;;;;;;;3.90;1.95;;;17.90;99.90;;;;;;4774548;29;20133;-94
2022/09/16 01:18:07;;;;;;;5.78;2.72;;;17.80;99.90;;;;;;4817300;24;20066;-94
2022/09/16 01:20:45;;;;;;;6.03;2.33;;;17.90;99.90;;;;;;4778170;29;20050;-94
2022/09/16 01:33:00;;;;;;;2.40;1.58;;;17.60;99.90;;;;;;4896995;24;20054;-92
2022/09/16 08:01:48;;;;;;;;;;;17.60;99.90;;;;;;4838351;24;20075;-92
2022/09/16 08:04:18;;;;;;;12.50;6.82;;;17.60;99.90;;;;;;4749806;30;20013;-93
2022/09/16 08:06:46;;;;;;;11.60;6.20;;;17.70;99.90;;;;;;4743321;30;20078;-93
2022/09/16 08:12:21;;;;;;;11.13;7.05;;;17.60;99.90;;;;;;4882495;24;20134;-93
2022/09/16 08:14:53;;;;;;;17.88;7.30;;;17.60;99.90;;;;;;4754813;30;20058;-93
2022/09/16 08:17:21;;;;;;;13.20;6.30;;;17.60;99.90;;;;;;4755919;30;20074;-93
2022/09/16 08:19:48;;;;;;;12.93;6.75;;;17.70;99.90;;;;;;4750027;30;20109;-93
2022/09/16 08:22:16;;;;;;;11.25;5.93;;;17.60;99.90;;;;;;4768231;30;20108;-93
2022/09/16 08:24:43;;;;;;;10.00;5.57;;;17.50;99.90;;;;;;4766243;30;20056;-93
2022/09/16 08:27:10;;;;;;;11.90;6.00;;;17.60;99.90;;;;;;4755364;29;20534;-93
2022/09/16 08:29:37;;;;;;;10.32;5.55;;;17.70;99.90;;;;;;4747525;30;20048;-94
2022/09/16 08:32:05;;;;;;;11.43;5.57;;;17.70;99.90;;;;;;4767792;30;20054;-94
2022/09/16 08:34:32;;;;;;;10.40;5.10;;;17.70;99.90;;;;;;4753413;30;20052;-92
2022/09/16 08:36:59;;;;;;;12.07;5.60;;;17.60;99.90;;;;;;4753339;30;20055;-94
2022/09/16 08:39:27;;;;;;;11.40;5.80;;;17.60;99.90;;;;;;4750770;30;20059;-94
2022/09/16 08:52:07;;;;;;;8.02;3.92;;;17.70;99.90;;;;;;4832775;24;20059;-94
2022/09/16 08:54:44;;;;;;;8.48;4.07;;;17.70;99.90;;;;;;4769560;29;20130;-94
2022/09/16 08:57:21;;;;;;;8.77;4.25;;;17.80;99.90;;;;;;4772803;29;20399;-94
2022/09/16 08:59:54;;;;;;;9.45;4.60;;;17.80;99.90;;;;;;4760750;30;20044;-94
2022/09/16 09:06:05;;;;;;;6.25;3.47;;;17.80;99.90;;;;;;4826057;24;20088;-95
2022/09/16 09:15:57;;;;;;;4.80;3.38;;;17.80;99.90;;;;;;4831019;24;20065;-95
2022/09/16 09:19:08;;;;;;;4.35;2.83;;;17.80;99.90;;;;;;4786546;29;20043;-96
2022/09/16 09:25:47;;;;;;;6.95;3.72;;;17.80;99.90;;;;;;4824861;24;20050;-93
2022/09/16 09:28:54;;;;;;;4.75;3.05;;;17.90;99.90;;;;;;4767748;29;20065;-95
2022/09/16 09:35:16;;;;;;;4.75;2.80;;;17.90;99.90;;;;;;4816783;24;20630;-92
2022/09/16 09:38:10;;;;;;;5.25;2.60;;;17.90;99.90;;;;;;4763329;29;21015;-94
2022/09/16 09:41:16;;;;;;;4.32;2.90;;;18.00;99.90;;;;;;4767856;29;20078;-94
2022/09/16 09:43:54;;;;;;;6.78;3.05;;;18.00;99.90;;;;;;4780360;29;20417;-94
2022/09/16 09:46:28;;;;;;;5.45;2.60;;;17.90;99.90;;;;;;4782584;29;20142;-94
2022/09/16 09:49:22;;;;;;;4.30;2.20;;;18.00;99.90;;;;;;4781342;29;20058;-94
2022/09/16 09:56:22;;;;;;;3.90;2.40;;;17.90;99.90;;;;;;4813870;24;20544;-94
2022/09/16 09:58:53;;;;;;;4.70;2.85;;;17.90;99.90;;;;;;4780372;29;20438;-94
2022/09/16 10:01:20;;;;;;;6.05;3.05;;;17.90;99.90;;;;;;4778514;29;20525;-93
2022/09/16 10:03:50;;;;;;;6.18;2.67;;;17.90;99.90;;;;;;4776461;29;21141;-94
2022/09/16 10:06:25;;;;;;;5.57;2.80;;;17.70;99.90;;;;;;4783149;29;20054;-94
2022/09/16 10:08:55;;;;;;;5.40;2.67;;;18.00;99.90;;;;;;4768513;29;20062;-93
2022/09/16 10:11:27;;;;;;;5.88;3.05;;;18.00;99.90;;;;;;4778063;29;20038;-93
2022/09/16 10:13:57;;;;;;;5.33;2.77;;;18.10;99.90;;;;;;4763858;29;20054;-94
2022/09/16 10:16:35;;;;;;;7.35;2.75;;;18.10;99.90;;;;;;4768216;29;20075;-93
2022/09/16 10:19:23;;;;;;;8.48;3.92;;;18.10;99.90;;;;;;4782259;29;20137;-94
2022/09/16 10:22:12;;;;;;;4.82;2.80;;;18.10;99.90;;;;;;4766973;29;20493;-93
2022/09/16 10:24:42;;;;;;;5.35;2.95;;;18.10;99.90;;;;;;4785385;29;20059;-96
2022/09/16 10:27:36;;;;;;;5.30;2.97;;;18.10;99.90;;;;;;4778256;29;20063;-96
2022/09/16 10:30:21;;;;;;;6.85;2.35;;;18.10;99.90;;;;;;4773310;29;20047;-96
2022/09/16 10:33:18;;;;;;;4.63;2.55;;;18.00;99.90;;;;;;4772118;30;20051;-95
2022/09/16 10:36:00;;;;;;;5.03;2.08;;;18.10;99.90;;;;;;4766944;30;20047;-95
2022/09/16 10:38:52;;;;;;;4.88;2.20;;;18.10;99.90;;;;;;4748838;30;20054;-95
2022/09/16 10:41:27;;;;;;;2.38;1.48;;;18.10;99.90;;;;;;4771941;30;20969;-95
2022/09/16 10:44:02;;;;;;;4.63;1.90;;;18.10;99.90;;;;;;4746745;29;20062;-94
2022/09/16 10:46:30;;;;;;;4.75;1.92;;;18.10;99.90;;;;;;4765779;30;20507;-95
2022/09/16 10:49:07;;;;;;;4.80;1.77;;;18.10;99.90;;;;;;4751116;30;20076;-94
2022/09/16 10:51:35;;;;;;;2.60;1.60;;;18.00;99.90;;;;;;4745456;30;20138;-94
2022/09/16 10:54:07;;;;;;;3.63;1.85;;;18.00;99.90;;;;;;4771154;30;20142;-94
2022/09/16 10:56:46;;;;;;;;;;;18.00;99.90;;;;;;4753744;29;20507;-95
2022/09/16 10:59:14;;;;;;;2.72;1.52;;;18.00;99.90;;;;;;4764406;30;20028;-93
2022/09/16 11:01:50;;;;;;;3.03;1.35;;;18.00;99.90;;;;;;4756987;30;20055;-94
2022/09/16 11:04:53;;;;;;;4.43;1.90;;;18.00;99.90;;;;;;4752101;30;20051;-95
2022/09/16 11:07:27;;;;;;;4.50;2.22;;;18.00;99.90;;;;;;4757079;29;20177;-95
2022/09/16 11:18:01;;;;;;;4.25;2.10;;;18.00;99.90;;;;;;4797297;29;20381;-93
2022/09/16 11:21:14;;;;;;;4.40;2.50;;;18.00;99.90;;;;;;4798705;29;20160;-95
2022/09/16 11:23:47;;;;;;;4.55;2.33;;;18.10;99.90;;;;;;4774182;29;20039;-94
2022/09/16 11:26:54;;;;;;;6.68;2.83;;;18.10;99.90;;;;;;4779027;29;20047;-95
2022/09/16 11:33:05;;;;;;;4.03;2.28;;;18.30;99.90;;;;;;4777794;29;20334;-94
2022/09/16 11:35:33;;;;;;;7.63;3.13;;;18.30;99.90;;;;;;4771724;29;21779;-94
2022/09/16 11:38:16;;;;;;;4.68;2.90;;;18.40;99.90;;;;;;4773022;29;20075;-95
2022/09/16 11:40:52;;;;;;;6.88;3.22;;;18.40;99.90;;;;;;4787496;29;20103;-94
2022/09/16 11:43:39;;;;;;;6.30;3.92;;;18.40;99.90;;;;;;4783489;29;20075;-94
2022/09/16 11:46:25;;;;;;;7.45;3.25;;;18.40;99.90;;;;;;4780343;29;20082;-94
2022/09/16 11:49:16;;;;;;;6.28;2.33;;;18.40;99.90;;;;;;4763667;29;20610;-95
2022/09/16 11:52:21;;;;;;;6.72;2.20;;;18.40;99.90;;;;;;4777360;29;20672;-94
2022/09/16 11:54:51;;;;;;;4.38;2.03;;;18.40;99.90;;;;;;4785051;29;20054;-93
2022/09/16 11:57:25;;;;;;;7.00;2.10;;;18.40;99.90;;;;;;4770490;29;20057;-96
2022/09/16 11:59:55;;;;;;;5.25;2.30;;;18.50;99.90;;;;;;4786355;29;20550;-95
2022/09/16 12:02:53;;;;;;;4.78;1.98;;;18.50;99.90;;;;;;4788349;29;20204;-94
2022/09/16 12:05:39;;;;;;;4.65;2.50;;;18.50;99.90;;;;;;4783462;29;20189;-96
2022/09/16 12:08:21;;;;;;;3.72;2.30;;;18.60;99.90;;;;;;4785542;29;20050;-96
2022/09/16 12:10:59;;;;;;;6.13;2.15;;;18.60;99.90;;;;;;4776336;29;20055;-96
2022/09/16 12:13:43;;;;;;;5.22;2.00;;;18.60;99.90;;;;;;4764027;29;20055;-95
2022/09/16 12:16:16;;;;;;;5.15;2.15;;;18.70;99.90;;;;;;4788191;29;20738;-96
2022/09/16 12:18:51;;;;;;;7.88;2.53;;;18.80;99.90;;;;;;4776604;29;20454;-96
2022/09/16 12:21:24;;;;;;;5.20;2.55;;;18.80;99.90;;;;;;4786325;29;20047;-96
2022/09/16 12:24:23;;;;;;;6.05;2.42;;;18.90;99.90;;;;;;4782517;29;20059;-95
2022/09/16 12:26:58;;;;;;;4.97;2.72;;;18.90;99.90;;;;;;4760308;29;20046;-96
2022/09/16 12:29:40;;;;;;;5.38;2.45;;;18.90;99.90;;;;;;4773160;29;20076;-96
2022/09/16 12:32:20;;;;;;;6.20;2.40;;;19.00;99.90;;;;;;4793340;29;20646;-96
2022/09/16 12:34:54;;;;;;;3.72;1.65;;;18.80;99.80;;;;;;4781903;29;20063;-95
2022/09/16 12:37:46;;;;;;;3.65;1.42;;;18.70;96.90;;;;;;4781803;29;20051;-96
2022/09/16 12:40:35;;;;;;;4.70;1.45;;;18.70;98.20;;;;;;4770258;29;20070;-96
2022/09/16 12:43:38;;;;;;;4.13;1.42;;;18.70;98.80;;;;;;4783785;29;20056;-96
2022/09/16 12:46:10;;;;;;;;;;;18.70;97.70;;;;;;4782829;29;20050;-96
2022/09/16 12:48:43;;;;;;;4.37;1.60;;;18.60;96.00;;;;;;4782817;29;19931;-96
2022/09/16 12:51:32;;;;;;;5.22;1.98;;;18.70;97.10;;;;;;4788395;29;20057;-96
2022/09/16 12:54:25;;;;;;;5.30;1.60;;;18.60;95.90;;;;;;4783754;29;20078;-96
2022/09/16 12:57:11;;;;;;;3.53;1.30;;;18.60;97.40;;;;;;4802159;29;20051;-96
2022/09/16 12:59:44;;;;;;;3.40;1.80;;;18.60;98.00;;;;;;4786159;29;20125;-96
2022/09/16 13:02:20;;;;;;;5.40;2.08;;;18.70;98.10;;;;;;4779828;29;20670;-96
2022/09/16 13:04:51;;;;;;;2.85;1.50;;;18.70;98.00;;;;;;4769108;29;20054;-96
2022/09/16 13:07:31;;;;;;;2.88;1.48;;;18.70;97.80;;;;;;4779249;29;20436;-96
2022/09/16 13:10:08;;;;;;;3.85;1.38;;;18.70;97.30;;;;;;4768606;29;20055;-96
2022/09/16 13:12:35;;;;;;;4.03;1.30;;;18.70;95.10;;;;;;4765589;29;20055;-96
2022/09/16 13:15:30;;;;;;;5.10;2.08;;;18.70;97.30;;;;;;4783505;29;20059;-96
2022/09/16 13:18:36;;;;;;;3.75;1.50;;;18.80;97.70;;;;;;4783877;29;20201;-96
2022/09/16 13:21:23;;;;;;;4.60;1.60;;;18.80;97.30;;;;;;4778947;29;20051;-95
2022/09/16 13:24:12;;;;;;;3.80;1.52;;;18.90;97.40;;;;;;4775704;29;20050;-96
2022/09/16 13:26:41;;;;;;;2.25;1.30;;;19.00;96.00;;;;;;4779835;29;20047;-96
2022/09/16 13:29:38;;;;;;;3.88;1.88;;;19.00;97.30;;;;;;4772154;29;20063;-95
2022/09/16 13:32:24;;;;;;;5.05;1.92;;;19.00;96.70;;;;;;4765770;29;20043;-95
2022/09/16 13:35:23;;;;;;;4.15;1.77;;;19.00;95.80;;;;;;4765599;30;20079;-94
2022/09/16 13:37:53;;;;;;;2.50;1.33;;;18.90;94.10;;;;;;4766958;29;20074;-94
2022/09/16 13:40:25;;;;;;;2.55;1.20;;;18.90;95.40;;;;;;4795859;29;20057;-93
2022/09/16 13:43:08;;;;;;;4.00;1.25;;;19.00;96.70;;;;;;4793578;29;20055;-96
2022/09/16 13:45:43;;;;;;;4.40;1.35;;;19.00;95.20;;;;;;4786517;29;20073;-94
2022/09/16 13:48:24;;;;;;;4.60;1.65;;;18.90;94.60;;;;;;4766069;29;20138;-94
2022/09/16 13:50:56;;;;;;;3.47;1.50;;;18.90;95.60;;;;;;4801183;29;20046;-94
2022/09/16 13:53:36;;;;;;;5.78;1.52;;;18.90;94.90;;;;;;4786418;29;20083;-94
2022/09/16 13:56:12;;;;;;;5.18;1.10;;;18.80;94.90;;;;;;4780121;29;20051;-93
2022/09/16 13:58:48;;;;;;;3.75;1.33;;;18.80;96.40;;;;;;4781252;29;20055;-92
2022/09/16 14:01:27;;;;;;;4.18;1.30;;;18.80;96.20;;;;;;4782351;29;20047;-93
2022/09/16 14:04:26;;;;;;;4.40;0.93;;;18.80;97.00;;;;;;4773550;29;20047;-94
2022/09/16 14:07:06;;;;;;;3.78;1.30;;;18.80;96.80;;;;;;4789367;29;20051;-89
2022/09/16 14:10:06;;;;;;;2.63;0.93;;;18.80;96.90;;;;;;4784202;29;20108;-94
2022/09/16 14:12:42;;;;;;;4.75;1.02;;;18.80;96.40;;;;;;4775655;30;20077;-93
2022/09/16 14:15:10;;;;;;;3.88;0.90;;;18.80;97.00;;;;;;4797528;29;20246;-94
2022/09/16 14:17:44;;;;;;;5.78;1.48;;;18.80;96.00;;;;;;4789290;29;20054;-95
2022/09/16 14:20:20;;;;;;;3.30;1.25;;;18.70;95.70;;;;;;4780204;29;20047;-94
2022/09/16 14:23:19;;;;;;;4.53;1.33;;;18.70;96.00;;;;;;4775344;30;20055;-94
2022/09/16 14:25:46;;;;;;;2.78;1.10;;;18.70;96.10;;;;;;4778291;30;20509;-94
2022/09/16 14:28:25;;;;;;;4.70;1.20;;;18.70;96.30;;;;;;4803099;29;20148;-94
2022/09/16 14:30:56;;;;;;;4.60;1.75;;;18.70;95.90;;;;;;4774189;29;20097;-94
2022/09/16 14:33:29;;;;;;;4.35;1.40;;;18.60;97.40;;;;;;4774382;29;20103;-94
2022/09/16 14:35:56;;;;;;;;;;;18.60;97.70;;;;;;4766223;29;20142;-93
2022/09/16 14:39:00;;;;;;;2.63;1.00;;;18.60;98.90;;;;;;4777313;29;19929;-92
2022/09/16 14:41:46;;;;;;;1.65;0.82;;;18.50;97.40;;;;;;4786949;29;20043;-96
2022/09/16 14:44:21;;;;;;;3.80;0.80;;;18.50;96.00;;;;;;4802668;29;20051;-93
2022/09/16 14:46:52;;;;;;;2.10;0.98;;;18.50;96.90;;;;;;4762453;29;20055;-93
2022/09/16 14:49:36;;;;;;;3.40;0.63;;;18.50;96.70;;;;;;4788308;29;20051;-95
2022/09/16 14:52:04;;;;;;;1.58;0.63;;;18.50;96.60;;;;;;4773182;29;20421;-95
2022/09/16 14:54:32;;;;;;;4.85;1.02;;;18.40;96.30;;;;;;4774972;29;20070;-95
2022/09/16 14:57:02;;;;;;;3.25;1.27;;;18.40;96.40;;;;;;4777802;29;20081;-96
2022/09/16 14:59:38;;;;;;;2.28;0.70;;;18.30;96.70;;;;;;4777742;30;20047;-96
2022/09/16 15:02:12;;;;;;;7.43;0.90;;;18.30;96.70;;;;;;4786253;29;20051;-95
2022/09/16 15:04:43;;;;;;;4.57;0.73;;;18.30;97.00;;;;;;4776251;29;20063;-95
2022/09/16 15:07:20;;;;;;;2.83;0.60;;;18.30;97.10;;;;;;4791491;29;20572;-95
2022/09/16 15:10:17;;;;;;;2.58;0.60;;;18.30;95.80;;;;;;4776164;29;20067;-96
2022/09/16 15:12:56;;;;;;;1.80;0.40;;;18.30;96.80;;;;;;4801544;29;20079;-94
2022/09/16 15:15:30;;;;;;;2.55;0.40;;;18.20;94.50;;;;;;4787347;29;20047;-94
2022/09/16 15:18:33;;;;;;;1.90;0.30;;;18.20;94.40;;;;;;4773594;29;20112;-94
2022/09/16 15:21:03;;;;;;;2.30;0.70;;;18.10;94.60;;;;;;4768126;29;20054;-92
2022/09/16 15:23:32;;;;;;;1.23;0.47;;;18.10;95.00;;;;;;4759283;29;20051;-95
2022/09/16 15:26:17;;;;;;;1.65;0.60;;;18.10;94.80;;;;;;4781747;29;20493;-94
2022/09/16 15:28:56;;;;;;;4.53;0.40;;;18.10;95.70;;;;;;4769823;29;20190;-94
2022/09/16 15:31:29;;;;;;;1.70;0.43;;;18.10;95.50;;;;;;4770200;29;20054;-95
2022/09/16 15:33:58;;;;;;;0.60;0.30;;;18.00;95.80;;;;;;4780700;29;20055;-94
2022/09/16 15:36:35;;;;;;;2.63;0.40;;;18.10;96.40;;;;;;4775519;29;20078;-94
2022/09/16 15:39:03;;;;;;;1.55;0.30;;;18.10;95.60;;;;;;4762248;29;20051;-96
2022/09/16 15:41:30;;;;;;;4.50;0.52;;;18.10;96.10;;;;;;4780822;29;20150;-95
2022/09/16 15:43:59;;;;;;;1.48;0.30;;;18.00;96.00;;;;;;4764803;29;20085;-96
2022/09/16 15:46:27;;;;;;;2.42;0.50;;;18.00;96.80;;;;;;4775906;29;20043;-95
2022/09/16 15:48:58;;;;;;;1.38;0.40;;;18.00;97.70;;;;;;4779095;29;20424;-96
2022/09/16 15:51:38;;;;;;;3.83;0.50;;;18.00;98.50;;;;;;4784945;29;20053;-95
2022/09/16 15:54:25;;;;;;;3.35;0.47;;;17.90;98.60;;;;;;4773897;29;20107;-95
2022/09/16 15:57:26;;;;;;;1.98;0.60;;;17.90;99.00;;;;;;4792754;29;20131;-95
2022/09/16 15:59:53;;;;;;;2.65;0.40;;;17.90;98.90;;;;;;4760277;29;20165;-92
2022/09/16 16:02:39;;;;;;;2.03;0.32;;;17.80;97.70;;;;;;4787357;29;20080;-95
2022/09/16 16:05:28;;;;;;;3.33;0.57;;;17.80;97.60;;;;;;4780099;29;20062;-95
2022/09/16 16:07:58;;;;;;;2.78;0.80;;;17.80;97.90;;;;;;4764131;29;20050;-95
2022/09/16 16:10:30;;;;;;;5.75;1.15;;;17.80;98.10;;;;;;4763865;29;20055;-96
2022/09/16 16:12:58;;;;;;;2.88;0.70;;;17.70;97.60;;;;;;4783485;29;20086;-95
2022/09/16 16:15:30;;;;;;;3.35;0.50;;;17.70;98.00;;;;;;4768691;29;20586;-95
2022/09/16 16:18:03;;;;;;;3.00;0.40;;;17.60;97.50;;;;;;4783425;29;20497;-96
2022/09/16 16:20:33;;;;;;;0.88;0.50;;;17.70;97.00;;;;;;4784813;29;20039;-95
2022/09/16 16:23:01;;;;;;;2.70;0.43;;;17.60;96.80;;;;;;4789091;29;20051;-96
2022/09/16 16:25:28;;;;;;;2.33;0.30;;;17.60;97.50;;;;;;4787363;29;20039;-95
2022/09/16 16:27:55;;;;;;;1.60;0.30;;;17.60;98.20;;;;;;4786176;29;20055;-96
2022/09/16 16:30:22;;;;;;;2.50;0.35;;;17.60;98.60;;;;;;4779389;29;20043;-95
2022/09/16 16:32:50;;;;;;;1.50;0.38;;;17.50;98.40;;;;;;4767970;29;20047;-95
2022/09/16 16:35:17;;;;;;;2.00;0.40;;;17.60;98.10;;;;;;4781381;29;20104;-96
2022/09/16 16:37:44;;;;;;;1.05;0.43;;;17.50;97.50;;;;;;4783580;29;20540;-96
2022/09/16 16:40:14;;;;;;;2.05;0.50;;;17.50;98.00;;;;;;4771039;29;20057;-95
2022/09/16 16:42:42;;;;;;;4.38;0.82;;;17.50;97.80;;;;;;4772523;29;20047;-95
2022/09/16 16:48:18;;;;;;;2.38;0.30;;;17.40;98.80;;;;;;4853541;24;20071;-95
2022/09/16 16:54:17;;;;;;;1.55;0.40;;;17.40;98.10;;;;;;4862515;24;20051;-94
2022/09/16 16:56:45;;;;;;;3.70;0.40;;;17.40;98.70;;;;;;4754322;30;21024;-94
2022/09/16 17:25:08;;;;;;;;;;;17.20;97.80;;;;;;5052359;24;20127;-93
